Time;durP1;ratioP1;P1;durP2;ratioP2;P2;SDS_P1;SDS_P2;PMS_P1;PMS_P2;Temp;Humidity;BMP_temperature;BMP_pressure;BME280_temperature;BME280_humidity;BME280_pressure;Samples;Min_cycle;Max_cycle;Signal;HPM_P1;HPM_P2
2022/07/15 00:00:49;;;;;;;0.50;0.50;;;;;;;34.12;28.32;97866.28;5078213;28;20044;-79
2022/07/15 00:03:16;;;;;;;0.52;0.52;;;;;;;33.99;28.07;97863.03;5092300;27;20032;-79
2022/07/15 00:05:42;;;;;;;0.63;0.43;;;;;;;33.87;28.31;97870.72;5080427;28;20076;-79
2022/07/15 00:08:08;;;;;;;0.50;0.50;;;;;;;33.85;28.37;97861.13;5079059;28;22069;-77
2022/07/15 00:10:34;;;;;;;0.40;0.40;;;;;;;33.69;28.15;97839.78;5087361;28;20047;-78
2022/07/15 00:13:02;;;;;;;0.85;0.40;;;;;;;33.26;28.77;97830.31;5084715;28;20487;-78
2022/07/15 00:15:30;;;;;;;0.50;0.50;;;;;;;33.36;28.61;97845.94;5083281;28;20111;-79
2022/07/15 00:18:01;;;;;;;0.43;0.38;;;;;;;33.72;28.30;97860.75;5082554;28;20027;-78
2022/07/15 00:20:33;;;;;;;0.40;0.40;;;;;;;33.63;28.25;97880.88;5080366;28;20119;-78
2022/07/15 00:23:03;;;;;;;0.52;0.52;;;;;;;33.12;29.50;97884.47;5077323;28;20082;-78
2022/07/15 00:25:29;;;;;;;0.60;0.40;;;;;;;33.31;28.87;97880.81;5081101;28;20090;-78
2022/07/15 00:27:57;;;;;;;2.67;0.50;;;;;;;33.69;28.16;97854.00;5077767;28;20043;-78
2022/07/15 00:30:24;;;;;;;0.47;0.47;;;;;;;33.93;28.01;97839.44;5080163;28;20464;-78
2022/07/15 00:32:51;;;;;;;0.65;0.32;;;;;;;34.11;27.61;97841.13;5078012;28;20438;-78
2022/07/15 00:35:17;;;;;;;0.70;0.40;;;;;;;34.40;26.92;97869.28;5076395;28;20166;-78
2022/07/15 00:37:43;;;;;;;0.30;0.30;;;;;;;34.59;26.76;97871.22;5081932;28;20025;-78
2022/07/15 00:40:10;;;;;;;0.40;0.40;;;;;;;34.49;26.49;97854.81;5076152;28;20044;-78
2022/07/15 00:42:45;;;;;;;0.65;0.40;;;;;;;34.20;27.15;97855.94;5078990;28;20032;-78
2022/07/15 00:45:31;;;;;;;0.45;0.45;;;;;;;34.02;27.66;97862.03;5059956;28;20476;-78
2022/07/15 00:47:58;;;;;;;1.40;0.40;;;;;;;34.06;27.28;97854.84;5087060;28;20404;-78
2022/07/15 00:50:26;;;;;;;0.35;0.35;;;;;;;33.73;27.56;97860.25;5073501;28;20035;-78
2022/07/15 00:53:04;;;;;;;0.52;0.50;;;;;;;33.36;28.73;97867.91;5085011;28;20429;-78
2022/07/15 00:55:32;;;;;;;0.40;0.40;;;;;;;33.60;28.00;97870.50;5088594;28;20026;-79
2022/07/15 00:58:03;;;;;;;0.30;0.30;;;;;;;33.77;27.50;97882.81;5069953;28;20043;-79
2022/07/15 01:00:30;;;;;;;0.60;0.55;;;;;;;33.80;27.33;97871.19;5079914;28;20036;-78
2022/07/15 01:02:58;;;;;;;0.80;0.35;;;;;;;33.97;27.46;97871.31;5083586;28;20039;-78
2022/07/15 01:05:25;;;;;;;0.30;0.30;;;;;;;34.08;26.92;97863.66;5086727;28;20596;-78
2022/07/15 01:07:52;;;;;;;0.55;0.40;;;;;;;33.73;27.23;97865.16;5084736;28;20032;-78
2022/07/15 01:10:23;;;;;;;0.47;0.47;;;;;;;33.75;27.52;97868.31;5094024;27;20055;-78
2022/07/15 01:12:51;;;;;;;1.17;0.30;;;;;;;33.97;27.19;97865.63;5082206;28;20686;-78
2022/07/15 01:15:17;;;;;;;0.40;0.40;;;;;;;34.10;26.77;97857.44;5080757;28;20112;-78
2022/07/15 01:17:44;;;;;;;0.40;0.40;;;;;;;34.31;26.61;97872.34;5080905;28;20033;-78
2022/07/15 01:20:12;;;;;;;0.40;0.40;;;;;;;34.25;26.90;97875.16;5077629;28;20415;-78
2022/07/15 01:22:38;;;;;;;0.32;0.32;;;;;;;34.13;26.97;97872.75;5080922;28;20415;-78
2022/07/15 01:25:05;;;;;;;0.75;0.40;;;;;;;34.13;26.89;97872.75;5077737;28;20063;-78
2022/07/15 01:27:32;;;;;;;0.40;0.40;;;;;;;34.25;27.04;97868.66;5079150;28;20044;-78
2022/07/15 01:29:59;;;;;;;0.85;0.43;;;;;;;34.12;27.04;97866.28;5076971;28;20028;-78
2022/07/15 01:32:26;;;;;;;0.45;0.45;;;;;;;33.96;27.19;97872.59;5078873;28;20043;-78
2022/07/15 01:34:53;;;;;;;0.60;0.60;;;;;;;33.95;27.62;97868.97;5082432;28;20028;-78
2022/07/15 01:37:19;;;;;;;0.50;0.50;;;;;;;33.84;27.53;97871.72;5078129;28;20062;-78
2022/07/15 01:39:45;;;;;;;0.50;0.50;;;;;;;33.79;27.46;97863.16;5079255;28;20034;-78
2022/07/15 01:42:12;;;;;;;1.95;0.47;;;;;;;33.56;28.02;97864.25;5079232;28;20040;-78
2022/07/15 01:44:38;;;;;;;0.30;0.30;;;;;;;33.62;27.75;97860.16;5079564;28;20024;-78
2022/07/15 01:47:04;;;;;;;0.40;0.40;;;;;;;33.84;28.02;97856.72;5076323;28;20028;-78
2022/07/15 01:49:31;;;;;;;0.40;0.40;;;;;;;33.74;27.73;97855.34;5081583;28;20030;-79
2022/07/15 01:51:59;;;;;;;2.10;0.30;;;;;;;33.49;28.03;97861.84;5078697;28;20596;-78
2022/07/15 01:54:28;;;;;;;0.70;0.28;;;;;;;33.49;28.51;97853.28;5074553;28;20107;-78
2022/07/15 01:56:54;;;;;;;0.40;0.30;;;;;;;33.90;27.44;97863.22;5091567;27;20128;-78
2022/07/15 01:59:25;;;;;;;0.47;0.30;;;;;;;34.30;27.14;97860.16;5079200;28;20497;-78
2022/07/15 02:01:55;;;;;;;0.52;0.52;;;;;;;34.60;26.74;97866.31;5078857;28;20044;-78
2022/07/15 02:04:22;;;;;;;0.35;0.30;;;;;;;34.66;26.20;97853.63;5075647;28;20041;-78
2022/07/15 02:06:50;;;;;;;0.28;0.28;;;;;;;34.66;26.21;97867.88;5077743;28;20533;-78
2022/07/15 02:09:16;;;;;;;0.50;0.30;;;;;;;34.13;26.56;97867.81;5082375;28;20028;-78
2022/07/15 02:11:43;;;;;;;1.10;0.30;;;;;;;33.65;27.20;97869.78;5077491;28;20032;-78
2022/07/15 02:14:09;;;;;;;0.30;0.30;;;;;;;33.57;27.60;97874.34;5079270;28;20086;-78
2022/07/15 02:16:35;;;;;;;0.20;0.20;;;;;;;33.49;27.80;97876.06;5081929;28;20038;-78
2022/07/15 02:19:02;;;;;;;0.20;0.20;;;;;;;33.32;27.74;97879.53;5079024;28;20125;-78
2022/07/15 02:21:28;;;;;;;0.30;0.30;;;;;;;32.89;28.27;97879.78;5078206;28;20041;-77
2022/07/15 02:23:57;;;;;;;0.30;0.30;;;;;;;33.01;27.86;97875.78;5074026;28;20110;-78
2022/07/15 02:26:23;;;;;;;1.95;0.30;;;;;;;33.21;27.77;97879.41;5079800;28;20039;-78
2022/07/15 02:28:49;;;;;;;0.30;0.30;;;;;;;33.45;27.46;97881.97;5076834;28;20044;-78
2022/07/15 02:31:15;;;;;;;2.60;0.38;;;;;;;33.42;27.31;97886.59;5078049;28;20090;-78
2022/07/15 02:33:42;;;;;;;0.20;0.20;;;;;;;33.57;26.69;97895.06;5080968;28;20039;-78
2022/07/15 02:36:08;;;;;;;0.30;0.30;;;;;;;33.58;26.49;97890.16;5073915;28;20479;-78
2022/07/15 02:38:35;;;;;;;0.20;0.20;;;;;;;33.34;26.64;97888.34;5076331;28;20423;-78
2022/07/15 02:41:02;;;;;;;0.30;0.28;;;;;;;33.05;27.50;97899.16;5073971;28;20085;-78
2022/07/15 02:43:29;;;;;;;0.30;0.30;;;;;;;33.20;27.31;97897.00;5079665;28;20033;-78
2022/07/15 02:45:55;;;;;;;0.28;0.20;;;;;;;33.42;26.86;97894.38;5077996;28;20032;-77
2022/07/15 02:48:21;;;;;;;0.20;0.20;;;;;;;33.55;26.83;97903.34;5075872;28;20028;-78
2022/07/15 02:50:48;;;;;;;0.20;0.20;;;;;;;33.64;26.27;97900.31;5076687;28;20055;-78
2022/07/15 02:53:15;;;;;;;0.63;0.38;;;;;;;33.76;26.20;97899.13;5077575;28;20400;-78
2022/07/15 02:55:41;;;;;;;1.65;0.25;;;;;;;33.80;26.30;97904.56;5067120;28;20032;-78
2022/07/15 02:58:07;;;;;;;0.40;0.20;;;;;;;33.86;26.05;97899.72;5077869;28;20415;-78
2022/07/15 03:00:34;;;;;;;0.30;0.30;;;;;;;33.96;25.85;97910.41;5071364;28;20109;-78
2022/07/15 03:03:00;;;;;;;0.30;0.30;;;;;;;33.90;26.31;97908.81;5066512;28;20459;-78
2022/07/15 03:05:26;;;;;;;0.25;0.25;;;;;;;33.49;26.88;97910.22;5071696;28;20040;-78
2022/07/15 03:07:52;;;;;;;0.68;0.20;;;;;;;33.43;26.73;97918.72;5070651;28;20049;-78
2022/07/15 03:10:19;;;;;;;0.20;0.20;;;;;;;33.43;26.90;97913.81;5069652;28;20503;-78
2022/07/15 03:12:45;;;;;;;3.70;0.50;;;;;;;33.09;27.51;97916.78;5074717;28;20422;-78
2022/07/15 03:15:11;;;;;;;0.40;0.40;;;;;;;32.52;28.50;97917.34;5075162;28;20033;-78
2022/07/15 03:17:39;;;;;;;0.50;0.50;;;;;;;31.80;29.98;97921.84;5073323;28;20100;-78
2022/07/15 03:20:07;;;;;;;0.70;0.70;;;;;;;31.37;30.85;97933.94;5078704;28;20036;-78
2022/07/15 03:22:34;;;;;;;3.25;0.52;;;;;;;31.30;30.84;97928.66;5079540;28;20128;-78
2022/07/15 03:25:00;;;;;;;0.88;0.75;;;;;;;31.75;30.45;97933.09;5075664;28;20115;-78
2022/07/15 03:27:26;;;;;;;1.67;1.20;;;;;;;31.58;31.04;97932.81;5076945;28;20081;-78
2022/07/15 03:29:52;;;;;;;0.60;0.60;;;;;;;31.46;31.23;97933.88;5083287;28;20040;-78
2022/07/15 03:32:20;;;;;;;1.58;0.80;;;;;;;31.56;31.21;97937.41;5078517;28;20033;-78
2022/07/15 03:34:48;;;;;;;1.00;0.90;;;;;;;31.93;30.90;97941.41;5078864;28;20101;-78
2022/07/15 03:37:15;;;;;;;0.90;0.90;;;;;;;32.27;30.16;97940.72;5086393;28;20028;-78
2022/07/15 03:39:41;;;;;;;0.90;0.90;;;;;;;31.80;31.10;97958.78;5082955;28;20485;-78
2022/07/15 03:42:07;;;;;;;0.80;0.80;;;;;;;31.79;31.41;97959.25;5081906;28;21457;-78
2022/07/15 03:44:33;;;;;;;1.20;0.80;;;;;;;31.75;31.32;97955.81;5075919;28;20060;-78
2022/07/15 03:46:59;;;;;;;1.00;0.80;;;;;;;32.23;30.83;97957.16;5081950;28;20027;-78
2022/07/15 03:49:26;;;;;;;1.25;1.05;;;;;;;32.01;31.17;97953.97;5086218;28;20071;-78
2022/07/15 03:51:52;;;;;;;1.85;1.10;;;;;;;32.21;30.67;97962.56;5082878;28;20064;-78
2022/07/15 03:54:18;;;;;;;1.05;1.00;;;;;;;32.20;30.94;97958.16;5076212;28;20036;-78
2022/07/15 03:56:47;;;;;;;2.03;1.42;;;;;;;32.34;30.58;97963.03;5078929;28;20028;-78
2022/07/15 03:59:14;;;;;;;1.67;1.30;;;;;;;32.13;31.17;97960.63;5080488;28;20519;-78
2022/07/15 04:01:41;;;;;;;1.70;1.60;;;;;;;32.30;30.94;97959.59;5077575;28;20036;-78
2022/07/15 04:04:08;;;;;;;1.92;1.55;;;;;;;32.54;30.59;97963.09;5077844;28;20085;-77
2022/07/15 04:06:35;;;;;;;4.50;1.85;;;;;;;32.23;31.20;97960.00;5081765;28;20430;-78
2022/07/15 04:09:01;;;;;;;1.80;1.70;;;;;;;32.46;30.95;97961.16;5082436;28;20515;-78
2022/07/15 04:11:27;;;;;;;1.85;1.75;;;;;;;32.57;30.88;97964.97;5084360;28;20031;-78
2022/07/15 04:13:53;;;;;;;2.58;2.38;;;;;;;32.81;30.35;97964.00;5079054;28;20079;-78
2022/07/15 04:16:20;;;;;;;2.85;1.75;;;;;;;33.13;30.08;97974.25;5083202;28;20024;-78
2022/07/15 04:18:46;;;;;;;6.55;2.78;;;;;;;33.03;29.94;97969.97;5082728;28;20112;-78
2022/07/15 04:21:12;;;;;;;2.70;2.45;;;;;;;32.93;30.47;97975.00;5083655;28;20035;-78
2022/07/15 04:23:38;;;;;;;3.47;3.20;;;;;;;32.63;30.81;97974.34;5082139;28;20047;-78
2022/07/15 04:26:05;;;;;;;4.18;3.38;;;;;;;32.41;30.98;97981.75;5085898;28;20036;-78
2022/07/15 04:28:31;;;;;;;3.15;2.88;;;;;;;32.52;31.10;97996.16;5094765;28;20036;-78
2022/07/15 04:30:57;;;;;;;4.20;3.90;;;;;;;32.31;31.52;97994.50;5080968;28;20037;-78
2022/07/15 04:33:23;;;;;;;5.55;4.97;;;;;;;31.84;31.83;98001.16;5082751;28;20036;-78
2022/07/15 04:35:49;;;;;;;5.88;4.88;;;;;;;31.37;32.52;98010.56;5082330;28;20028;-78
2022/07/15 04:38:16;;;;;;;5.47;4.97;;;;;;;30.94;33.72;98011.22;5081721;28;20044;-78
2022/07/15 04:40:42;;;;;;;7.22;5.78;;;;;;;31.14;33.13;98031.22;5082157;28;20510;-78
2022/07/15 04:43:09;;;;;;;6.50;5.90;;;;;;;30.99;33.61;98022.69;5081312;28;20040;-78
2022/07/15 04:45:35;;;;;;;8.38;6.10;;;;;;;31.63;32.35;98025.03;5080342;28;20028;-78
2022/07/15 04:50:45;;;;;;;6.88;6.22;;;;;;;31.56;32.27;98025.41;5079392;28;20455;-78
2022/07/15 04:50:51;;;;;;;7.25;6.60;;;;;;;31.27;32.47;98032.53;5077083;28;20036;-78
2022/07/15 04:53:19;;;;;;;7.78;6.65;;;;;;;31.14;33.14;98034.84;5082363;28;20074;-79
2022/07/15 04:55:46;;;;;;;7.15;6.15;;;;;;;30.38;35.08;98058.09;5078075;28;20040;-79
2022/07/15 04:58:14;;;;;;;6.65;6.07;;;;;;;30.69;34.09;98060.63;5077168;28;20078;-79
2022/07/15 05:00:41;;;;;;;7.43;6.40;;;;;;;30.99;33.64;98065.22;5085154;28;20063;-79
2022/07/15 05:03:07;;;;;;;6.75;6.18;;;;;;;31.03;33.38;98073.53;5082169;28;20639;-79
2022/07/15 05:05:34;;;;;;;9.15;8.25;;;;;;;30.67;34.02;98061.09;5100513;28;20495;-79
2022/07/15 05:08:00;;;;;;;7.53;6.75;;;;;;;31.16;32.98;98068.41;5081477;28;20032;-79
2022/07/15 05:10:26;;;;;;;10.05;9.05;;;;;;;30.35;34.78;98084.53;5087418;28;20086;-79
2022/07/15 05:12:52;;;;;;;13.30;11.55;;;;;;;29.85;34.48;98085.25;5092597;28;20067;-79
2022/07/15 05:15:18;;;;;;;12.35;9.70;;;;;;;30.06;34.24;98093.53;5087391;28;20528;-80
2022/07/15 05:17:44;;;;;;;10.98;8.65;;;;;;;29.69;35.39;98094.00;5093974;28;20380;-79
2022/07/15 05:20:11;;;;;;;14.10;10.48;;;;;;;29.67;35.13;98099.34;5086435;28;20039;-80
2022/07/15 05:22:37;;;;;;;10.43;9.43;;;;;;;30.16;34.19;98105.63;5095625;28;20039;-81
2022/07/15 05:25:04;;;;;;;11.75;10.65;;;;;;;30.23;33.20;98105.31;5093076;28;20524;-80
2022/07/15 05:27:31;;;;;;;13.05;9.73;;;;;;;30.51;33.35;98118.16;5084328;28;20034;-81
2022/07/15 05:29:57;;;;;;;12.23;10.98;;;;;;;29.82;34.59;98135.09;5085810;28;20029;-80
2022/07/15 05:32:23;;;;;;;11.57;10.38;;;;;;;30.05;35.20;98130.84;5095263;28;20427;-80
2022/07/15 05:34:49;;;;;;;13.35;11.93;;;;;;;30.37;34.80;98143.53;5108201;27;20450;-80
2022/07/15 05:37:15;;;;;;;14.73;11.77;;;;;;;29.70;37.39;98155.03;5084639;28;20116;-80
2022/07/15 05:39:53;;;;;;;14.60;12.20;;;;;;;29.67;34.81;98144.63;5086872;28;20055;-81
2022/07/15 05:42:20;;;;;;;10.60;9.52;;;;;;;31.62;32.71;98145.53;5088269;28;20126;-80
2022/07/15 05:44:47;;;;;;;13.43;9.95;;;;;;;32.49;31.08;98144.91;5094122;28;20065;-80
2022/07/15 05:47:13;;;;;;;9.80;8.65;;;;;;;33.38;30.95;98147.16;5091251;28;20446;-80
2022/07/15 05:49:39;;;;;;;8.77;7.90;;;;;;;33.23;29.22;98147.25;5089359;28;20032;-81
2022/07/15 05:52:05;;;;;;;7.50;6.82;;;;;;;33.61;28.98;98148.28;5093275;28;20060;-81
2022/07/15 05:54:31;;;;;;;6.85;6.30;;;;;;;33.10;28.05;98155.31;5088401;28;20036;-81
2022/07/15 05:56:58;;;;;;;7.18;6.25;;;;;;;32.95;29.97;98157.38;5077450;28;20106;-81
2022/07/15 05:59:24;;;;;;;6.60;5.95;;;;;;;33.06;28.56;98159.63;5060395;28;20051;-80
2022/07/15 06:01:50;;;;;;;6.35;5.85;;;;;;;33.49;28.48;98155.88;5076931;28;20028;-82
2022/07/15 06:04:16;;;;;;;6.20;5.60;;;;;;;33.26;28.39;98159.66;5087601;28;20042;-82
2022/07/15 06:06:42;;;;;;;4.47;4.18;;;;;;;33.39;27.64;98155.22;5079399;28;20037;-81
2022/07/15 06:09:09;;;;;;;4.82;4.38;;;;;;;33.49;27.37;98155.88;5084451;28;20085;-81
2022/07/15 06:11:35;;;;;;;4.32;4.03;;;;;;;33.66;28.26;98164.66;5087664;28;20021;-81
2022/07/15 06:14:03;;;;;;;6.40;4.35;;;;;;;33.83;26.80;98169.28;5069477;28;20402;-80
2022/07/15 06:16:30;;;;;;;4.97;4.28;;;;;;;33.88;27.49;98179.19;5083754;28;20034;-82
2022/07/15 06:18:56;;;;;;;5.03;4.35;;;;;;;33.55;26.50;98178.75;5079136;28;20998;-81
2022/07/15 06:21:22;;;;;;;6.43;4.10;;;;;;;33.39;28.09;98178.00;5078572;28;20028;-81
2022/07/15 06:23:48;;;;;;;5.05;4.57;;;;;;;33.73;26.41;98175.63;5083663;28;20035;-81
2022/07/15 06:26:14;;;;;;;4.55;3.70;;;;;;;34.54;26.50;98182.06;5093920;28;20480;-81
2022/07/15 06:28:40;;;;;;;5.10;4.53;;;;;;;34.07;26.04;98186.94;5061438;28;20434;-81
2022/07/15 06:31:06;;;;;;;4.10;3.75;;;;;;;34.06;27.20;98184.63;5078288;28;20432;-81
2022/07/15 06:33:32;;;;;;;4.97;4.07;;;;;;;33.48;27.10;98179.94;5080501;28;20027;-82
2022/07/15 06:35:59;;;;;;;3.80;3.45;;;;;;;33.86;25.85;98182.56;5084531;28;20064;-81
2022/07/15 06:38:25;;;;;;;3.15;2.95;;;;;;;33.55;26.16;98187.28;5084270;28;20111;-81
2022/07/15 06:40:51;;;;;;;3.25;2.90;;;;;;;33.65;24.99;98191.59;5081135;28;20037;-82
2022/07/15 06:43:20;;;;;;;2.97;2.65;;;;;;;33.41;25.82;98194.56;5085960;28;20111;-81
2022/07/15 06:45:46;;;;;;;2.67;2.47;;;;;;;33.97;25.04;98201.84;5078948;28;20388;-81
2022/07/15 06:48:12;;;;;;;3.13;2.15;;;;;;;34.50;25.07;98196.50;5080602;28;20056;-82
2022/07/15 06:50:39;;;;;;;3.60;2.28;;;;;;;33.72;24.52;98196.84;5079968;28;20071;-82
2022/07/15 06:53:05;;;;;;;2.88;2.15;;;;;;;32.91;26.22;98207.97;5085087;28;20020;-81
2022/07/15 06:55:31;;;;;;;2.10;1.90;;;;;;;33.58;24.70;98207.03;5078998;28;20086;-81
2022/07/15 06:57:57;;;;;;;3.38;2.10;;;;;;;33.40;24.82;98205.16;5077243;28;20043;-81
2022/07/15 07:00:23;;;;;;;4.28;2.03;;;;;;;33.60;24.38;98200.81;5078370;28;20046;-81
2022/07/15 07:02:49;;;;;;;2.47;2.00;;;;;;;33.45;24.67;98198.00;5081516;28;20082;-81
2022/07/15 07:05:16;;;;;;;3.58;1.83;;;;;;;33.50;23.90;98207.88;5085891;28;20531;-81
2022/07/15 07:07:42;;;;;;;3.42;1.50;;;;;;;33.24;26.75;98214.25;5093634;28;20038;-82
2022/07/15 07:10:09;;;;;;;2.63;1.40;;;;;;;32.68;26.28;98211.72;5088496;28;20081;-82
2022/07/15 07:12:36;;;;;;;3.17;1.65;;;;;;;32.61;24.00;98212.91;5088308;28;20126;-82
2022/07/15 07:15:04;;;;;;;3.22;1.30;;;;;;;31.76;29.28;98218.63;5089634;28;20118;-81
2022/07/15 07:17:30;;;;;;;3.13;1.35;;;;;;;32.36;25.12;98215.50;5091405;28;20430;-82
2022/07/15 07:19:56;;;;;;;2.55;1.23;;;;;;;33.16;24.02;98215.94;5085902;28;21937;-82
2022/07/15 07:22:22;;;;;;;1.58;1.27;;;;;;;32.57;25.46;98223.69;5094783;28;20128;-82
2022/07/15 07:24:48;;;;;;;1.58;1.10;;;;;;;32.66;24.69;98222.81;5088097;28;20036;-82
2022/07/15 07:27:14;;;;;;;2.63;1.48;;;;;;;32.59;23.61;98218.28;5084494;28;20040;-81
2022/07/15 07:29:41;;;;;;;2.67;0.90;;;;;;;32.81;24.44;98220.75;5079424;28;20029;-82
2022/07/15 07:32:07;;;;;;;1.80;0.98;;;;;;;33.09;24.43;98224.88;5082837;28;20087;-82
2022/07/15 07:34:33;;;;;;;4.28;1.60;;;;;;;32.48;23.92;98234.31;5085892;28;20032;-82
2022/07/15 07:36:59;;;;;;;7.13;1.10;;;;;;;32.84;25.80;98224.69;5079969;28;20032;-82
2022/07/15 07:39:25;;;;;;;1.90;0.90;;;;;;;32.61;26.79;98229.16;5082482;28;20036;-82
2022/07/15 07:41:53;;;;;;;1.42;1.02;;;;;;;32.20;26.34;98238.69;5072282;28;20035;-83
2022/07/15 07:44:20;;;;;;;3.13;1.00;;;;;;;32.99;23.73;98233.97;5077618;28;20089;-83
2022/07/15 07:46:47;;;;;;;3.10;1.00;;;;;;;32.89;23.33;98236.13;5082771;28;21905;-82
2022/07/15 07:49:13;;;;;;;1.98;1.08;;;;;;;32.90;23.28;98240.56;5083473;28;20377;-83
2022/07/15 07:51:43;;;;;;;1.67;1.10;;;;;;;32.78;24.16;98243.69;5079850;28;20040;-83
2022/07/15 07:54:10;;;;;;;1.30;1.20;;;;;;;33.70;23.62;98248.59;5077944;28;20063;-83
2022/07/15 07:56:36;;;;;;;2.67;1.23;;;;;;;33.51;22.66;98243.63;5068526;28;20521;-83
2022/07/15 07:59:02;;;;;;;3.13;1.30;;;;;;;34.06;23.25;98250.94;5077915;28;20051;-83
2022/07/15 08:01:28;;;;;;;2.63;1.05;;;;;;;33.97;23.20;98244.56;5083652;28;20040;-83
2022/07/15 08:03:55;;;;;;;2.30;1.05;;;;;;;33.87;25.63;98248.84;5083029;28;20028;-83
2022/07/15 08:06:22;;;;;;;2.67;1.02;;;;;;;32.41;25.87;98254.59;5083334;28;20028;-83
2022/07/15 08:08:50;;;;;;;3.05;1.08;;;;;;;32.74;25.33;98255.28;5086025;28;20066;-83
2022/07/15 08:11:19;;;;;;;1.30;1.05;;;;;;;33.34;24.38;98264.09;5079511;28;20115;-83
2022/07/15 08:13:46;;;;;;;1.27;0.80;;;;;;;34.04;22.24;98262.06;5082299;28;20468;-82
2022/07/15 08:16:12;;;;;;;3.03;0.90;;;;;;;33.67;24.37;98263.84;5082189;28;20059;-80
2022/07/15 08:18:38;;;;;;;1.50;1.08;;;;;;;32.95;24.17;98270.38;5081135;28;20111;-81
2022/07/15 08:21:05;;;;;;;1.50;0.93;;;;;;;33.26;23.57;98257.22;5064991;28;20067;-81
2022/07/15 08:23:35;;;;;;;3.55;0.90;;;;;;;33.52;22.48;98267.97;5081951;28;20038;-82
2022/07/15 08:26:01;;;;;;;1.83;0.80;;;;;;;33.69;25.47;98272.69;5083934;28;20072;-81
2022/07/15 08:28:27;;;;;;;1.75;0.88;;;;;;;34.17;23.01;98266.63;5082375;28;20048;-81
2022/07/15 08:30:53;;;;;;;1.55;0.90;;;;;;;32.80;23.88;98273.22;5076131;28;20068;-81
2022/07/15 08:33:19;;;;;;;2.20;0.98;;;;;;;33.21;23.22;98280.69;5083341;28;20051;-80
2022/07/15 08:35:45;;;;;;;1.10;0.85;;;;;;;32.75;24.87;98280.38;5074427;28;20124;-81
2022/07/15 08:38:11;;;;;;;1.20;0.90;;;;;;;33.39;23.80;98279.69;5081181;28;20036;-81
2022/07/15 08:40:39;;;;;;;3.42;1.00;;;;;;;33.06;22.21;98284.81;5081530;28;20098;-81
2022/07/15 08:43:09;;;;;;;1.50;0.95;;;;;;;32.35;25.49;98279.31;5084964;28;20032;-81
2022/07/15 08:45:37;;;;;;;5.40;1.05;;;;;;;32.56;23.07;98290.34;5077040;28;20043;-81
2022/07/15 08:48:10;;;;;;;1.20;0.90;;;;;;;31.41;25.85;98287.22;5078619;28;20042;-80
2022/07/15 08:50:37;;;;;;;3.25;0.77;;;;;;;31.61;23.90;98295.22;5080569;28;20040;-81
2022/07/15 08:53:03;;;;;;;2.17;0.60;;;;;;;32.64;23.46;98293.59;5075448;28;20051;-81
2022/07/15 08:55:30;;;;;;;1.33;0.60;;;;;;;33.01;21.73;98286.31;5076885;28;20069;-80
2022/07/15 08:57:57;;;;;;;4.20;0.90;;;;;;;33.46;21.18;98295.59;5073359;28;20043;-81
2022/07/15 09:00:28;;;;;;;0.60;0.45;;;;;;;33.64;21.23;98290.47;5071523;28;20123;-81
2022/07/15 09:03:00;;;;;;;1.50;0.60;;;;;;;33.98;20.37;98289.66;5077262;28;20093;-81
2022/07/15 09:05:28;;;;;;;3.70;0.80;;;;;;;33.43;20.69;98292.44;5078623;28;20107;-81
2022/07/15 09:08:06;;;;;;;0.70;0.50;;;;;;;32.96;22.81;98301.19;5081794;28;20028;-81
2022/07/15 09:10:51;;;;;;;1.42;0.70;;;;;;;32.43;23.39;98301.19;5076684;28;20705;-80
2022/07/15 09:13:32;;;;;;;2.90;0.82;;;;;;;32.08;22.46;98291.66;5081353;28;20499;-80
2022/07/15 09:16:01;;;;;;;1.40;0.93;;;;;;;32.06;23.79;98317.72;5079928;28;20480;-80
2022/07/15 09:18:36;;;;;;;2.88;1.00;;;;;;;32.02;24.93;98307.81;5084157;28;20033;-80
2022/07/15 09:21:13;;;;;;;1.15;0.70;;;;;;;32.66;23.28;98302.41;5082279;28;20036;-80
2022/07/15 09:23:40;;;;;;;2.50;0.80;;;;;;;33.16;21.96;98309.06;5082978;28;20803;-80
2022/07/15 09:26:22;;;;;;;2.55;1.10;;;;;;;32.67;20.89;98313.28;5080677;28;20063;-80
2022/07/15 09:28:50;;;;;;;2.28;0.80;;;;;;;32.79;21.71;98299.31;5081539;28;20036;-80
2022/07/15 09:34:20;;;;;;;8.15;0.90;;;;;;;33.79;21.17;98296.13;5082065;28;20067;-80
2022/07/15 09:36:52;;;;;;;1.42;0.90;;;;;;;31.96;24.93;98321.88;5085250;28;20127;-81
2022/07/15 09:39:23;;;;;;;5.38;0.90;;;;;;;32.39;23.84;98302.63;5083493;28;20369;-81
2022/07/15 09:41:49;;;;;;;;;;;;;;;31.93;22.60;98302.91;5098065;28;20050;-80
2022/07/15 09:44:18;;;;;;;3.95;0.85;;;;;;;32.00;23.14;98308.25;5082164;28;20384;-80
2022/07/15 09:46:47;;;;;;;1.58;0.80;;;;;;;32.48;23.25;98300.50;5078917;28;20074;-81
2022/07/15 09:49:22;;;;;;;3.80;0.70;;;;;;;33.99;20.94;98302.63;5076283;28;20205;-81
2022/07/15 09:51:56;;;;;;;3.13;0.95;;;;;;;34.28;22.08;98296.06;5082945;28;20033;-81
2022/07/15 09:54:30;;;;;;;1.23;0.65;;;;;;;34.96;20.45;98293.47;5081440;28;20024;-81
2022/07/15 09:56:58;;;;;;;1.38;0.95;;;;;;;33.88;20.95;98298.84;5065654;28;20028;-82
2022/07/15 09:59:24;;;;;;;3.63;0.77;;;;;;;33.66;21.70;98305.00;5079614;28;20036;-81
2022/07/15 10:01:51;;;;;;;0.98;0.60;;;;;;;33.76;20.71;98297.91;5077647;28;20043;-81
2022/07/15 10:04:20;;;;;;;3.78;0.45;;;;;;;33.14;22.77;98295.31;5079052;28;20039;-83
2022/07/15 10:06:50;;;;;;;1.92;0.50;;;;;;;33.69;21.72;98301.16;5077948;28;20422;-82
2022/07/15 10:09:28;;;;;;;1.48;0.63;;;;;;;32.85;23.33;98295.28;5081946;28;20020;-82
2022/07/15 10:12:18;;;;;;;1.25;0.60;;;;;;;32.35;22.79;98302.03;5075596;28;20044;-82
2022/07/15 10:15:21;;;;;;;3.65;0.60;;;;;;;32.37;22.03;98286.03;5075267;28;20053;-85
2022/07/15 10:18:10;;;;;;;1.83;0.50;;;;;;;32.18;24.04;98298.84;5077562;28;20050;-82
2022/07/15 10:20:51;;;;;;;0.60;0.45;;;;;;;32.96;22.44;98303.22;5078686;28;20036;-80
2022/07/15 10:23:23;;;;;;;1.00;0.47;;;;;;;34.52;20.25;98299.47;5077078;28;20028;-80
2022/07/15 10:26:12;;;;;;;1.05;0.30;;;;;;;34.08;19.30;98304.59;5078985;28;20055;-79
2022/07/15 10:28:58;;;;;;;2.58;0.50;;;;;;;33.33;22.49;98307.28;5076419;28;20037;-80
2022/07/15 10:31:26;;;;;;;0.40;0.40;;;;;;;32.37;22.25;98293.81;5077948;28;20025;-80
2022/07/15 10:34:04;;;;;;;2.35;0.70;;;;;;;32.03;22.52;98315.84;5082330;28;20040;-79
2022/07/15 10:36:56;;;;;;;3.22;0.50;;;;;;;32.58;20.88;98307.69;5065514;28;20462;-80
2022/07/15 10:39:26;;;;;;;0.43;0.30;;;;;;;32.95;21.58;98310.22;5080046;28;20476;-80
2022/07/15 10:41:59;;;;;;;1.48;0.40;;;;;;;32.72;21.05;98303.34;5079668;28;20051;-79
2022/07/15 10:44:28;;;;;;;2.05;0.52;;;;;;;32.54;21.02;98309.94;5080694;28;20040;-79
2022/07/15 10:47:17;;;;;;;2.30;0.40;;;;;;;32.38;21.80;98315.25;5087008;28;20035;-79
2022/07/15 10:49:45;;;;;;;0.85;0.50;;;;;;;32.37;21.10;98319.41;5088557;28;20077;-79
2022/07/15 10:52:24;;;;;;;2.25;0.60;;;;;;;33.72;20.23;98319.34;5079355;28;20028;-80
2022/07/15 10:54:57;;;;;;;1.58;0.43;;;;;;;33.39;21.05;98306.09;5076611;28;20036;-79
2022/07/15 10:57:44;;;;;;;2.25;0.60;;;;;;;32.70;20.84;98303.00;5079798;28;20477;-80
2022/07/15 11:00:28;;;;;;;0.95;0.40;;;;;;;32.43;21.95;98312.53;5078889;28;20088;-80
2022/07/15 11:03:05;;;;;;;2.50;0.60;;;;;;;32.70;21.21;98322.91;5080440;28;20040;-79
2022/07/15 11:05:32;;;;;;;2.03;0.40;;;;;;;32.17;21.73;98327.72;5070192;28;20060;-79
2022/07/15 11:07:59;;;;;;;4.68;0.50;;;;;;;32.59;21.85;98319.84;5090163;28;20517;-79
2022/07/15 11:10:25;;;;;;;0.82;0.40;;;;;;;33.43;20.67;98311.59;5088595;28;20036;-79
2022/07/15 11:12:51;;;;;;;0.93;0.60;;;;;;;34.31;19.71;98305.69;5087168;28;20040;-79
2022/07/15 11:15:23;;;;;;;0.47;0.30;;;;;;;33.93;20.00;98318.09;5088200;28;20037;-79
2022/07/15 11:17:53;;;;;;;0.80;0.40;;;;;;;33.43;20.18;98317.28;5082229;28;20051;-79
2022/07/15 11:20:20;;;;;;;0.40;0.40;;;;;;;32.90;20.39;98325.13;5076903;28;20520;-80
2022/07/15 11:22:49;;;;;;;1.20;0.40;;;;;;;32.76;21.23;98320.97;5080608;28;20298;-79
2022/07/15 11:25:24;;;;;;;2.47;0.40;;;;;;;32.93;20.37;98321.28;5078464;28;20054;-79
2022/07/15 11:28:02;;;;;;;0.82;0.30;;;;;;;33.47;20.68;98317.09;5086513;28;20542;-79
2022/07/15 11:30:32;;;;;;;1.50;0.50;;;;;;;32.84;22.80;98324.25;5073614;28;20068;-79
2022/07/15 11:33:01;;;;;;;2.78;0.50;;;;;;;32.66;21.59;98325.16;5075760;28;20705;-79
2022/07/15 11:35:28;;;;;;;0.65;0.50;;;;;;;32.94;20.59;98315.09;5074025;28;20504;-79
2022/07/15 11:38:00;;;;;;;1.42;0.38;;;;;;;32.82;21.27;98323.91;5084701;28;20055;-80
2022/07/15 11:46:07;;;;;;;0.30;0.30;;;;;;;33.97;19.97;98328.00;5062147;28;20051;-80
2022/07/15 11:48:36;;;;;;;0.70;0.35;;;;;;;34.05;19.24;98322.72;5080429;28;20032;-79